Time;durP1;ratioP1;P1;durP2;ratioP2;P2;SDS_P1;SDS_P2;PMS_P1;PMS_P2;Temp;Humidity;BMP_temperature;BMP_pressure;BME280_temperature;BME280_humidity;BME280_pressure;Samples;Min_cycle;Max_cycle;Signal;HPM_P1;HPM_P2
2022/06/01 00:00:34;;;;;;;6.05;3.10;;;;;;;16.18;67.09;99660.31;4361649;32;34930;-68
2022/06/01 00:03:02;;;;;;;4.87;3.20;;;;;;;16.13;67.43;99657.63;4361405;32;33823;-67
2022/06/01 00:05:30;;;;;;;5.50;3.50;;;;;;;16.10;67.42;99656.28;4361518;32;33356;-67
2022/06/01 00:07:58;;;;;;;4.40;3.10;;;;;;;16.38;66.37;99653.81;4361156;32;34807;-67
2022/06/01 00:10:26;;;;;;;5.45;3.30;;;;;;;16.59;65.31;99654.44;4361430;32;34211;-66
2022/06/01 00:12:54;;;;;;;6.97;3.12;;;;;;;16.33;66.17;99648.41;4360873;32;34450;-69
2022/06/01 00:15:23;;;;;;;5.22;3.10;;;;;;;16.25;66.37;99657.25;4361367;32;33183;-67
2022/06/01 00:17:51;;;;;;;5.95;3.15;;;;;;;16.31;66.29;99645.16;4347272;32;33766;-68
2022/06/01 00:20:18;;;;;;;5.30;3.58;;;;;;;16.37;65.66;99649.44;4361039;32;34304;-68
2022/06/01 00:22:46;;;;;;;5.28;3.40;;;;;;;16.69;64.41;99657.03;4347587;32;34067;-67
2022/06/01 00:25:15;;;;;;;5.50;3.08;;;;;;;16.65;64.49;99655.16;4361387;32;33210;-67
2022/06/01 00:27:43;;;;;;;4.15;3.03;;;;;;;16.77;64.25;99648.19;4360956;32;34579;-67
2022/06/01 00:30:13;;;;;;;4.47;3.25;;;;;;;16.41;65.50;99639.53;4361130;32;34790;-67
2022/06/01 00:32:40;;;;;;;4.45;3.10;;;;;;;16.61;64.76;99649.47;4360917;32;33995;-67
2022/06/01 00:35:09;;;;;;;4.78;2.97;;;;;;;16.30;65.71;99641.56;4347798;32;33425;-67
2022/06/01 00:37:37;;;;;;;5.15;3.20;;;;;;;16.03;66.48;99644.06;4347189;32;34154;-67
2022/06/01 00:40:06;;;;;;;4.62;3.15;;;;;;;15.85;67.11;99642.81;4360885;32;34139;-67
2022/06/01 00:42:35;;;;;;;3.75;2.95;;;;;;;16.15;66.06;99639.00;4361337;32;33836;-67
2022/06/01 00:45:03;;;;;;;4.75;3.37;;;;;;;15.87;66.95;99641.41;4347445;32;33159;-74
2022/06/01 00:47:31;;;;;;;4.60;2.97;;;;;;;15.98;66.65;99634.78;4360305;32;33945;-71
2022/06/01 00:50:11;;;;;;;4.68;3.40;;;;;;;16.35;65.30;99632.50;4360460;32;35098;-67
2022/06/01 00:52:45;;;;;;;5.07;3.12;;;;;;;16.23;65.52;99632.91;4362709;32;34014;-72
2022/06/01 00:55:20;;;;;;;;;;;;;;;15.76;67.26;99627.00;4350625;32;33397;-71
2022/06/01 00:57:51;;;;;;;3.53;2.87;;;;;;;16.05;66.38;99628.97;4349506;32;34257;-67
2022/06/01 01:00:22;;;;;;;5.15;3.30;;;;;;;16.16;65.65;99632.44;4348989;32;34205;-66
2022/06/01 01:02:52;;;;;;;4.90;3.50;;;;;;;16.15;65.55;99631.59;4349089;32;33782;-68
2022/06/01 01:05:20;;;;;;;4.10;3.20;;;;;;;16.19;65.54;99638.13;4349895;32;33173;-67
2022/06/01 01:07:48;;;;;;;5.18;3.50;;;;;;;16.37;64.50;99636.59;4349051;32;34087;-70
2022/06/01 01:10:16;;;;;;;4.78;3.30;;;;;;;16.18;65.27;99625.56;4349082;32;34345;-67
2022/06/01 01:13:04;;;;;;;4.28;3.15;;;;;;;16.13;65.42;99633.81;4362706;32;34440;-67
2022/06/01 01:15:51;;;;;;;6.03;3.42;;;;;;;16.29;64.95;99630.94;4362750;32;33618;-67
2022/06/01 01:18:22;;;;;;;4.20;3.05;;;;;;;16.22;65.42;99636.75;4349350;32;33819;-67
2022/06/01 01:21:09;;;;;;;4.10;2.95;;;;;;;16.14;65.43;99638.19;4349175;32;33877;-66
2022/06/01 01:23:42;;;;;;;4.68;3.62;;;;;;;15.70;67.05;99630.03;4362810;32;34791;-67
2022/06/01 01:26:10;;;;;;;5.05;3.40;;;;;;;16.02;65.98;99634.19;4362477;32;33488;-67
2022/06/01 01:28:37;;;;;;;5.65;3.47;;;;;;;16.18;65.33;99636.50;4362563;32;33806;-68
2022/06/01 01:31:08;;;;;;;4.65;3.03;;;;;;;16.06;65.46;99632.50;4362764;32;35495;-68
2022/06/01 01:33:35;;;;;;;5.97;3.70;;;;;;;16.16;65.38;99637.91;4348415;32;34419;-67
2022/06/01 01:36:07;;;;;;;6.47;3.22;;;;;;;15.99;65.98;99630.94;4362725;32;33419;-69
2022/06/01 01:38:52;;;;;;;4.72;2.97;;;;;;;15.86;66.62;99637.06;4362221;32;33810;-67
2022/06/01 01:41:25;;;;;;;5.30;3.50;;;;;;;15.86;66.98;99628.03;4362619;32;34236;-67
2022/06/01 01:44:00;;;;;;;4.43;3.40;;;;;;;15.49;68.04;99623.94;4349030;32;33919;-68
2022/06/01 01:46:29;;;;;;;6.57;3.55;;;;;;;15.38;68.37;99628.66;4362047;32;33582;-67
2022/06/01 01:48:58;;;;;;;5.68;3.83;;;;;;;15.12;69.75;99622.53;4348831;32;33852;-67
2022/06/01 01:51:27;;;;;;;4.82;3.60;;;;;;;15.44;68.63;99623.94;4362504;32;34165;-67
2022/06/01 01:53:55;;;;;;;5.78;3.50;;;;;;;15.61;67.92;99621.63;4349056;32;34611;-68
2022/06/01 01:56:38;;;;;;;5.18;3.60;;;;;;;15.47;68.57;99620.66;4348712;32;33479;-67
2022/06/01 01:59:29;;;;;;;5.03;3.37;;;;;;;15.82;67.45;99619.59;4362316;32;33712;-68
2022/06/01 02:02:22;;;;;;;5.28;3.30;;;;;;;16.02;66.82;99620.50;4348515;32;33969;-67
2022/06/01 02:08:01;;;;;;;4.57;3.33;;;;;;;15.99;67.07;99614.50;4350864;32;33249;-67
2022/06/01 02:13:16;;;;;;;5.05;3.37;;;;;;;15.59;68.59;99605.53;4362191;32;34219;-67
2022/06/01 02:15:46;;;;;;;5.85;3.70;;;;;;;15.47;69.27;99610.53;4348811;32;34164;-67
2022/06/01 02:18:18;;;;;;;5.53;3.80;;;;;;;15.39;69.64;99616.59;4348449;32;34095;-67
2022/06/01 02:20:49;;;;;;;6.80;3.67;;;;;;;15.36;69.90;99614.44;4362154;32;33974;-66
2022/06/01 02:23:17;;;;;;;5.87;3.70;;;;;;;15.84;67.99;99617.38;4349245;32;35052;-67
2022/06/01 02:25:48;;;;;;;5.57;3.67;;;;;;;15.77;68.04;99611.44;4361774;32;33855;-67
2022/06/01 02:28:16;;;;;;;4.60;3.45;;;;;;;15.99;67.61;99613.69;4361522;32;34264;-67
2022/06/01 02:33:33;;;;;;;5.85;3.70;;;;;;;15.82;68.09;99616.03;4361467;32;34099;-67
2022/06/01 02:36:03;;;;;;;4.78;3.40;;;;;;;15.64;68.68;99618.34;4348197;32;33727;-67
2022/06/01 02:38:39;;;;;;;5.53;3.80;;;;;;;15.64;69.02;99620.28;4348772;32;33462;-67
2022/06/01 02:42:25;;;;;;;5.43;3.80;;;;;;;14.69;73.68;99616.72;4362315;32;34544;-67
2022/06/01 02:43:55;;;;;;;6.00;3.60;;;;;;;15.58;69.96;99623.03;4361291;32;34159;-67
2022/06/01 02:46:24;;;;;;;6.25;3.80;;;;;;;15.66;69.79;99620.78;4362328;32;34745;-67
2022/06/01 02:48:52;;;;;;;4.72;3.50;;;;;;;15.29;71.46;99614.78;4361882;32;33368;-67
2022/06/01 02:51:21;;;;;;;5.55;3.72;;;;;;;15.90;69.06;99621.72;4362096;32;33926;-68
2022/06/01 02:53:48;;;;;;;6.72;4.22;;;;;;;15.72;69.72;99612.31;4362278;32;34193;-67
2022/06/01 02:56:16;;;;;;;5.65;3.50;;;;;;;15.71;69.98;99618.84;4362168;32;33919;-67
2022/06/01 02:58:44;;;;;;;5.12;3.65;;;;;;;15.90;69.37;99616.25;4361182;32;34219;-68
2022/06/01 03:01:11;;;;;;;6.03;4.10;;;;;;;15.94;69.45;99611.81;4362056;32;33952;-67
2022/06/01 03:03:40;;;;;;;7.12;4.12;;;;;;;15.80;70.62;99616.31;4348857;32;34087;-67
2022/06/01 03:06:08;;;;;;;6.97;4.90;;;;;;;15.36;73.33;99609.78;4361743;32;34681;-67
2022/06/01 03:08:35;;;;;;;8.57;5.53;;;;;;;15.73;71.98;99613.91;4361775;32;34176;-68
2022/06/01 03:11:03;;;;;;;11.00;6.43;;;;;;;15.57;74.17;99607.72;4348706;32;33370;-71
2022/06/01 03:13:30;;;;;;;10.35;6.68;;;;;;;15.68;74.68;99610.38;4360586;32;34124;-67
2022/06/01 03:15:58;;;;;;;10.63;5.80;;;;;;;15.96;73.67;99606.88;4361996;32;33959;-66
2022/06/01 03:18:26;;;;;;;9.65;5.72;;;;;;;16.27;72.48;99611.25;4348115;32;34371;-67
2022/06/01 03:20:53;;;;;;;7.65;5.12;;;;;;;16.15;73.17;99606.16;4361816;32;34018;-67
2022/06/01 03:23:21;;;;;;;7.10;5.28;;;;;;;16.27;72.75;99606.56;4348724;32;33833;-67
2022/06/01 03:25:48;;;;;;;9.00;5.20;;;;;;;16.56;71.85;99601.03;4361717;32;33640;-69
2022/06/01 03:28:17;;;;;;;9.15;5.82;;;;;;;16.44;72.41;99600.66;4361300;32;33360;-68
2022/06/01 03:30:45;;;;;;;11.40;6.07;;;;;;;16.96;70.52;99595.38;4361775;32;34690;-68
2022/06/01 03:33:15;;;;;;;15.85;8.73;;;;;;;17.04;70.71;99600.19;4348296;32;34972;-67
2022/06/01 03:35:43;;;;;;;13.60;8.13;;;;;;;17.19;71.52;99613.69;4348720;32;33705;-67
2022/06/01 03:38:10;;;;;;;16.27;9.00;;;;;;;16.97;73.26;99625.22;4361851;32;33272;-67
2022/06/01 03:40:38;;;;;;;17.80;9.82;;;;;;;16.88;74.53;99661.78;4362288;32;33713;-69
2022/06/01 03:43:06;;;;;;;13.75;8.05;;;;;;;16.43;77.86;99689.34;4361242;32;34203;-67
2022/06/01 03:48:23;;;;;;;17.77;9.52;;;;;;;16.91;74.75;99689.44;4361246;32;34382;-72
2022/06/01 03:50:50;;;;;;;17.05;9.90;;;;;;;17.46;72.78;99686.25;4348337;32;33895;-71
2022/06/01 03:53:19;;;;;;;16.45;10.15;;;;;;;17.49;72.63;99687.56;4361539;32;33963;-68
2022/06/01 03:55:47;;;;;;;20.27;10.98;;;;;;;17.68;72.31;99691.13;4348416;32;34032;-68
2022/06/01 03:58:17;;;;;;;22.37;12.35;;;;;;;17.65;72.73;99690.94;4360917;32;33550;-67
2022/06/01 04:00:45;;;;;;;19.05;10.60;;;;;;;17.51;73.59;99690.84;4361462;32;34832;-67
2022/06/01 04:03:13;;;;;;;19.77;11.05;;;;;;;17.29;74.78;99678.53;4361561;32;34057;-67
2022/06/01 04:05:41;;;;;;;21.05;11.48;;;;;;;16.99;76.31;99666.03;4361243;32;33856;-67
2022/06/01 04:08:09;;;;;;;19.58;11.20;;;;;;;17.04;76.65;99667.88;4361005;32;33533;-68
2022/06/01 04:10:39;;;;;;;23.92;12.98;;;;;;;17.24;75.95;99673.13;4348057;32;33890;-71
2022/06/01 04:13:06;;;;;;;19.52;11.68;;;;;;;16.49;80.48;99666.31;4347815;32;34113;-67
2022/06/01 04:15:34;;;;;;;18.33;10.48;;;;;;;16.97;78.02;99680.03;4361367;32;33815;-67
2022/06/01 04:18:02;;;;;;;21.67;11.00;;;;;;;17.22;76.84;99678.88;4361465;32;33678;-67
2022/06/01 04:20:29;;;;;;;22.52;12.60;;;;;;;17.63;74.64;99678.31;4347782;32;34059;-69
2022/06/01 04:22:58;;;;;;;20.08;11.60;;;;;;;17.84;73.88;99680.78;4361066;32;34855;-67
2022/06/01 04:25:28;;;;;;;19.48;12.13;;;;;;;18.07;72.98;99678.22;4348592;32;33888;-67
2022/06/01 04:27:55;;;;;;;21.67;11.82;;;;;;;17.84;74.30;99680.78;4362404;32;33543;-69
2022/06/01 04:30:24;;;;;;;18.73;11.88;;;;;;;18.06;74.10;99674.66;4354859;32;34604;-66
2022/06/01 04:32:52;;;;;;;23.77;12.35;;;;;;;18.18;74.03;99685.97;4361396;32;35098;-66
2022/06/01 04:35:22;;;;;;;23.50;14.45;;;;;;;18.54;72.10;99688.06;4348909;32;33770;-66
2022/06/01 04:37:49;;;;;;;23.35;13.20;;;;;;;18.67;71.79;99688.41;4359308;32;34715;-66
2022/06/01 04:40:19;;;;;;;22.87;13.18;;;;;;;18.79;71.29;99685.97;4361795;32;33908;-68
2022/06/01 04:42:46;;;;;;;22.37;12.68;;;;;;;18.46;72.74;99686.03;4361134;32;34175;-69
2022/06/01 04:45:15;;;;;;;22.13;13.23;;;;;;;18.43;74.06;99692.12;4361689;32;34487;-68
2022/06/01 04:47:43;;;;;;;24.73;13.27;;;;;;;18.22;77.27;99686.19;4362326;32;33523;-69
2022/06/01 04:50:11;;;;;;;22.52;13.70;;;;;;;19.38;72.31;99677.91;4362347;32;33867;-69
2022/06/01 04:52:38;;;;;;;20.05;12.23;;;;;;;19.24;72.38;99678.75;4362318;32;34131;-68
2022/06/01 04:55:07;;;;;;;23.00;11.88;;;;;;;19.72;68.73;99682.91;4362616;32;33677;-70
2022/06/01 04:57:36;;;;;;;21.05;12.85;;;;;;;18.73;73.24;99678.94;4361829;32;33619;-69
2022/06/01 05:00:05;;;;;;;20.80;12.37;;;;;;;19.04;71.64;99681.91;4361463;32;33534;-69
2022/06/01 05:02:33;;;;;;;20.67;12.43;;;;;;;19.34;72.11;99688.69;4362405;32;35096;-69
2022/06/01 05:05:01;;;;;;;22.70;11.75;;;;;;;19.53;73.09;99687.75;4362365;32;33517;-68
2022/06/01 05:07:28;;;;;;;18.05;11.35;;;;;;;20.87;67.18;99683.28;4346666;32;33036;-66
2022/06/01 05:09:56;;;;;;;15.75;9.63;;;;;;;21.35;63.63;99685.19;4362811;32;34002;-67
2022/06/01 05:12:23;;;;;;;14.85;8.82;;;;;;;21.25;63.45;99682.72;4362021;32;35102;-67
2022/06/01 05:14:51;;;;;;;17.60;9.52;;;;;;;21.68;62.02;99693.03;4362260;32;33882;-65
2022/06/01 05:17:19;;;;;;;13.75;8.93;;;;;;;21.53;63.62;99690.75;4362348;32;34290;-65
2022/06/01 05:19:46;;;;;;;13.68;8.05;;;;;;;21.58;62.06;99696.13;4361689;32;34689;-66
2022/06/01 05:22:14;;;;;;;12.45;8.27;;;;;;;21.75;59.73;99701.66;4361713;32;33739;-66
2022/06/01 05:24:41;;;;;;;11.93;7.68;;;;;;;21.05;62.62;99706.22;4362602;32;34602;-66
2022/06/01 05:27:12;;;;;;;13.15;6.80;;;;;;;21.04;62.22;99708.16;4361760;32;34469;-67
2022/06/01 05:29:39;;;;;;;10.30;6.78;;;;;;;21.24;61.85;99703.19;4362106;32;34043;-68
2022/06/01 05:32:09;;;;;;;10.07;6.82;;;;;;;21.21;61.35;99710.16;4362109;32;34183;-68
2022/06/01 05:34:37;;;;;;;8.65;5.90;;;;;;;21.07;61.29;99715.78;4361777;32;34936;-67
2022/06/01 05:37:04;;;;;;;7.68;4.75;;;;;;;20.57;63.30;99716.06;4361269;32;33565;-68
2022/06/01 05:39:32;;;;;;;8.15;4.70;;;;;;;20.58;63.63;99720.47;4362085;32;33918;-66
2022/06/01 05:42:00;;;;;;;6.62;4.80;;;;;;;20.79;62.17;99723.47;4361166;32;33908;-66
2022/06/01 05:44:30;;;;;;;8.82;4.80;;;;;;;20.88;61.24;99723.50;4361454;32;33913;-66
2022/06/01 05:47:00;;;;;;;7.22;4.43;;;;;;;20.78;61.64;99737.59;4361154;32;33282;-67
2022/06/01 05:49:27;;;;;;;7.45;4.30;;;;;;;20.40;63.93;99736.03;4361412;32;33640;-66
2022/06/01 05:51:55;;;;;;;6.10;4.32;;;;;;;19.77;66.52;99737.03;4359436;32;34133;-66
2022/06/01 05:54:23;;;;;;;6.78;4.55;;;;;;;20.56;63.20;99741.16;4360672;32;34755;-66
2022/06/01 05:56:50;;;;;;;6.57;4.30;;;;;;;20.17;64.78;99737.19;4360815;32;33776;-66
2022/06/01 05:59:18;;;;;;;6.28;4.37;;;;;;;20.18;64.17;99742.37;4359653;32;33612;-65
2022/06/01 06:01:46;;;;;;;8.10;4.45;;;;;;;19.88;65.56;99741.19;4372156;32;34678;-67
2022/06/01 06:04:13;;;;;;;7.72;4.32;;;;;;;19.60;66.06;99741.22;4376746;32;33742;-67
2022/06/01 06:06:41;;;;;;;9.82;4.32;;;;;;;20.03;64.72;99742.75;4376765;32;34349;-65
2022/06/01 06:09:09;;;;;;;5.95;4.25;;;;;;;18.89;68.88;99735.25;4376658;32;34644;-67
2022/06/01 06:11:39;;;;;;;6.85;4.55;;;;;;;19.55;66.77;99737.78;4366261;32;34226;-66
2022/06/01 06:14:07;;;;;;;6.03;4.30;;;;;;;19.67;66.36;99738.88;4359726;32;33953;-67
2022/06/01 06:16:37;;;;;;;6.22;4.37;;;;;;;19.69;66.93;99741.28;4361579;32;33558;-67
2022/06/01 06:19:05;;;;;;;8.32;4.90;;;;;;;19.79;66.46;99746.62;4361708;32;34781;-67
2022/06/01 06:21:32;;;;;;;6.20;4.50;;;;;;;19.79;66.23;99749.37;4361631;32;35013;-69
2022/06/01 06:24:04;;;;;;;7.90;5.20;;;;;;;19.96;65.55;99743.19;4362352;32;34055;-68
2022/06/01 06:26:33;;;;;;;6.97;5.05;;;;;;;19.67;66.67;99755.41;4347658;32;34218;-67
2022/06/01 06:29:03;;;;;;;7.20;5.12;;;;;;;19.85;65.79;99752.81;4358758;32;33776;-67
2022/06/01 06:31:30;;;;;;;8.18;5.10;;;;;;;19.76;66.17;99763.75;4339552;32;34353;-68
2022/06/01 06:33:58;;;;;;;7.10;4.82;;;;;;;19.83;65.81;99757.81;4362019;32;33759;-68
2022/06/01 06:36:26;;;;;;;8.68;5.60;;;;;;;19.55;66.83;99757.06;4362485;32;33504;-68
2022/06/01 06:38:53;;;;;;;8.63;5.07;;;;;;;19.93;65.40;99765.03;4361503;32;33834;-67
2022/06/01 06:41:22;;;;;;;7.65;5.15;;;;;;;19.65;65.98;99765.06;4352152;32;34156;-68
2022/06/01 06:43:50;;;;;;;7.53;4.68;;;;;;;19.31;67.41;99766.34;4347333;33;34636;-67
2022/06/01 06:46:19;;;;;;;7.82;5.25;;;;;;;19.42;67.29;99769.69;4334043;33;33576;-67
2022/06/01 06:48:50;;;;;;;6.30;4.85;;;;;;;19.24;68.15;99779.69;4332101;33;33456;-67
2022/06/01 06:51:19;;;;;;;7.22;5.10;;;;;;;19.51;67.70;99781.59;4352586;32;34160;-66
2022/06/01 06:53:48;;;;;;;6.50;4.78;;;;;;;18.54;71.40;99789.72;4352374;32;33558;-67
2022/06/01 06:56:18;;;;;;;7.43;4.72;;;;;;;19.03;69.86;99782.84;4351101;32;33222;-67
2022/06/01 06:58:45;;;;;;;7.35;5.20;;;;;;;18.98;70.72;99774.66;4346291;32;33420;-69
2022/06/01 07:01:13;;;;;;;6.97;5.32;;;;;;;18.85;71.87;99781.81;4351028;32;34190;-68
2022/06/01 07:03:40;;;;;;;7.97;5.03;;;;;;;18.88;71.73;99785.03;4353628;32;34691;-67
2022/06/01 07:06:17;;;;;;;9.85;5.05;;;;;;;19.31;70.35;99782.00;4355546;32;34216;-67
2022/06/01 07:08:47;;;;;;;6.45;4.70;;;;;;;19.73;69.60;99783.62;4356215;32;33933;-67
2022/06/01 07:11:17;;;;;;;8.52;5.35;;;;;;;19.20;70.36;99797.91;4354207;32;34287;-66
2022/06/01 07:13:46;;;;;;;7.30;5.22;;;;;;;18.41;73.18;99802.31;4346327;32;33801;-68
2022/06/01 07:16:16;;;;;;;7.80;5.20;;;;;;;18.95;70.91;99802.78;4361806;32;33242;-68
2022/06/01 07:18:46;;;;;;;7.82;4.90;;;;;;;18.75;72.16;99809.44;4360944;32;34847;-67
2022/06/01 07:21:17;;;;;;;7.40;4.68;;;;;;;19.44;70.81;99808.72;4361831;32;33946;-65
2022/06/01 07:23:45;;;;;;;6.32;4.43;;;;;;;20.47;65.79;99808.09;4361296;32;34045;-68
2022/06/01 07:26:22;;;;;;;6.43;4.12;;;;;;;19.76;67.34;99805.06;4343306;32;33267;-70
2022/06/01 07:28:50;;;;;;;5.28;3.83;;;;;;;19.76;67.55;99810.56;4337507;33;34204;-68
2022/06/01 07:31:19;;;;;;;5.60;3.60;;;;;;;19.78;65.69;99805.53;4352565;32;34192;-69
2022/06/01 07:33:46;;;;;;;6.65;3.10;;;;;;;20.49;65.97;99797.53;4339385;32;33904;-69
2022/06/01 07:36:16;;;;;;;4.75;3.08;;;;;;;21.07;62.66;99801.31;4351947;32;33268;-70
2022/06/01 07:44:26;;;;;;;3.37;2.53;;;;;;;21.27;61.58;99807.38;4360961;32;34522;-71
2022/06/01 07:46:53;;;;;;;3.70;2.78;;;;;;;22.08;59.09;99803.37;4359187;32;32944;-69
2022/06/01 07:49:41;;;;;;;3.70;2.83;;;;;;;21.62;59.91;99799.25;4361460;32;34840;-68
2022/06/01 07:52:28;;;;;;;4.90;2.67;;;;;;;21.24;61.33;99806.09;4361339;32;34107;-71
2022/06/01 07:54:56;;;;;;;3.90;2.53;;;;;;;21.85;60.77;99813.75;4361287;32;33994;-70
2022/06/01 07:57:24;;;;;;;3.90;2.58;;;;;;;21.99;60.06;99819.16;4361085;32;33629;-68
2022/06/01 07:59:51;;;;;;;3.47;2.60;;;;;;;22.28;59.45;99821.28;4360116;32;34874;-67
2022/06/01 08:02:19;;;;;;;4.03;2.33;;;;;;;22.19;57.68;99823.22;4361460;32;34258;-67
2022/06/01 08:04:47;;;;;;;3.70;2.20;;;;;;;22.53;58.34;99822.41;4361482;32;34056;-68
2022/06/01 08:07:14;;;;;;;3.40;2.08;;;;;;;21.58;60.04;99817.59;4360672;32;33269;-66
2022/06/01 08:09:42;;;;;;;3.90;2.53;;;;;;;21.24;60.63;99827.34;4360986;32;34024;-70
2022/06/01 08:14:55;;;;;;;2.92;2.00;;;;;;;21.05;61.89;99822.88;4361049;32;34316;-65
2022/06/01 08:17:23;;;;;;;3.53;2.42;;;;;;;20.86;61.43;99828.63;4360810;32;34519;-67
2022/06/01 08:19:51;;;;;;;3.20;2.08;;;;;;;22.28;58.77;99826.81;4360798;32;34565;-68
2022/06/01 08:22:18;;;;;;;3.00;2.20;;;;;;;22.48;57.28;99831.69;4361333;32;33822;-69
2022/06/01 08:24:46;;;;;;;3.53;2.40;;;;;;;22.20;57.25;99831.19;4360665;32;34910;-71
2022/06/01 08:27:14;;;;;;;2.60;1.92;;;;;;;22.18;56.57;99832.63;4360674;32;33262;-71
2022/06/01 08:29:42;;;;;;;3.97;2.62;;;;;;;22.33;58.18;99834.94;4360809;32;33863;-69
2022/06/01 08:32:09;;;;;;;2.65;2.08;;;;;;;22.91;55.58;99835.50;4360994;32;34059;-68
2022/06/01 08:34:38;;;;;;;3.28;2.47;;;;;;;22.81;56.28;99838.66;4360999;32;34082;-67
2022/06/01 08:37:06;;;;;;;4.07;2.37;;;;;;;22.34;55.54;99850.41;4360655;32;33637;-65
2022/06/01 08:39:33;;;;;;;3.92;2.65;;;;;;;23.26;54.96;99844.56;4360339;32;34837;-69
2022/06/01 08:42:02;;;;;;;6.80;2.47;;;;;;;23.26;55.10;99850.09;4358921;32;34215;-71
2022/06/01 08:44:35;;;;;;;3.40;2.42;;;;;;;22.79;55.77;99841.75;4347409;32;34029;-67
2022/06/01 08:47:13;;;;;;;3.67;2.53;;;;;;;23.18;54.89;99848.16;4346493;32;33784;-68
2022/06/01 08:49:40;;;;;;;2.80;2.12;;;;;;;22.50;54.22;99851.53;4347079;32;33716;-68
2022/06/01 08:52:08;;;;;;;4.32;2.47;;;;;;;23.45;54.33;99854.41;4346548;32;34146;-71
2022/06/01 08:54:36;;;;;;;3.15;2.30;;;;;;;23.09;53.35;99848.19;4346486;32;34107;-69
2022/06/01 08:57:19;;;;;;;3.67;2.35;;;;;;;22.62;55.00;99850.88;4359926;32;33748;-72
2022/06/01 09:00:12;;;;;;;3.20;2.03;;;;;;;22.97;53.76;99853.56;4346420;32;33595;-68
2022/06/01 09:03:12;;;;;;;3.17;2.00;;;;;;;23.36;52.75;99856.41;4360051;32;34432;-68
2022/06/01 09:05:44;;;;;;;3.10;1.85;;;;;;;23.02;52.70;99853.41;4360483;32;35050;-68
2022/06/01 09:08:56;;;;;;;3.75;2.35;;;;;;;23.36;53.07;99859.97;4346388;32;33799;-69
2022/06/01 09:11:37;;;;;;;2.60;1.83;;;;;;;24.18;50.98;99853.38;4283692;33;33563;-68
2022/06/01 09:14:13;;;;;;;4.37;2.20;;;;;;;24.13;49.39;99854.38;4354222;32;33733;-67
2022/06/01 09:16:47;;;;;;;2.08;1.65;;;;;;;24.32;49.66;99859.47;4362551;32;34999;-68
2022/06/01 09:19:20;;;;;;;3.47;2.10;;;;;;;24.17;49.76;99863.66;4349533;32;34032;-68
2022/06/01 09:22:43;;;;;;;3.15;2.05;;;;;;;23.78;50.46;99864.84;4362153;32;33857;-68
2022/06/01 09:25:02;;;;;;;2.53;1.83;;;;;;;23.78;49.89;99860.16;4344713;32;34922;-70
2022/06/01 09:27:38;;;;;;;4.70;1.90;;;;;;;23.53;49.82;99868.22;4347623;32;34835;-70
2022/06/01 09:30:35;;;;;;;2.95;2.00;;;;;;;24.31;49.12;99857.81;4356075;32;34304;-69
2022/06/01 09:33:04;;;;;;;2.87;1.80;;;;;;;23.42;50.60;99869.72;4347305;32;33857;-69
2022/06/01 09:35:45;;;;;;;1.98;1.65;;;;;;;24.02;48.95;99867.81;4349060;32;33682;-72
2022/06/01 09:38:34;;;;;;;2.53;1.92;;;;;;;24.26;49.35;99866.34;4361755;32;34096;-70
2022/06/01 09:41:04;;;;;;;1.62;1.52;;;;;;;23.31;49.05;99862.94;4348601;32;33684;-70
2022/06/01 09:43:33;;;;;;;1.80;1.65;;;;;;;23.92;47.82;99863.47;4361724;32;33466;-69
2022/06/01 09:46:00;;;;;;;3.05;1.80;;;;;;;24.01;47.74;99874.50;4362260;32;34066;-70
2022/06/01 09:48:37;;;;;;;2.03;1.70;;;;;;;23.78;48.37;99870.41;4348650;32;34153;-70
2022/06/01 09:51:08;;;;;;;2.42;2.10;;;;;;;23.34;48.58;99871.37;4348796;32;34579;-68
2022/06/01 09:54:08;;;;;;;2.05;1.30;;;;;;;23.51;48.96;99875.22;4361391;32;33989;-69
2022/06/01 09:56:41;;;;;;;1.83;1.52;;;;;;;23.92;48.15;99873.75;4314391;33;34919;-67
2022/06/01 10:08:14;;;;;;;1.83;1.62;;;;;;;24.45;45.46;99869.47;4349576;32;34274;-70
2022/06/01 10:11:17;;;;;;;2.37;1.62;;;;;;;24.18;44.04;99876.34;4348134;32;35534;-69
2022/06/01 10:14:09;;;;;;;2.37;1.65;;;;;;;24.85;45.26;99865.38;4323110;33;34055;-71
2022/06/01 10:16:46;;;;;;;1.58;1.48;;;;;;;24.51;44.14;99864.53;4355546;32;34132;-68
2022/06/01 10:19:18;;;;;;;2.00;1.48;;;;;;;24.22;45.27;99871.75;4348117;32;34979;-69
2022/06/01 10:21:59;;;;;;;2.40;1.50;;;;;;;24.01;45.75;99870.91;4348537;32;34805;-71
2022/06/01 10:24:32;;;;;;;4.25;2.10;;;;;;;23.68;47.15;99875.16;4348227;32;34414;-68
2022/06/01 10:27:02;;;;;;;5.05;1.80;;;;;;;23.91;49.09;99875.72;4348458;32;34666;-68
2022/06/01 10:29:34;;;;;;;4.95;1.70;;;;;;;24.05;46.65;99872.69;4361579;32;33831;-71
2022/06/01 10:32:09;;;;;;;2.00;1.60;;;;;;;23.12;46.18;99875.19;4340510;32;34312;-69
2022/06/01 10:34:40;;;;;;;2.28;1.80;;;;;;;23.36;46.15;99879.37;4348969;32;33632;-69
2022/06/01 10:38:00;;;;;;;2.12;1.70;;;;;;;24.44;45.40;99876.12;4361843;32;33666;-69
2022/06/01 10:40:46;;;;;;;2.45;1.70;;;;;;;24.69;45.98;99879.87;4330748;32;34240;-68
2022/06/01 10:43:23;;;;;;;2.97;1.90;;;;;;;24.53;44.37;99874.13;4361864;32;34196;-68
2022/06/01 10:46:23;;;;;;;2.50;1.70;;;;;;;24.04;45.17;99876.63;4361945;32;33809;-70
2022/06/01 10:49:19;;;;;;;1.62;1.35;;;;;;;24.67;43.47;99870.28;4356383;32;35033;-71
2022/06/01 10:51:54;;;;;;;2.95;1.50;;;;;;;24.12;44.31;99874.91;4357977;32;34793;-69
2022/06/01 10:54:28;;;;;;;1.73;1.52;;;;;;;25.09;42.49;99870.97;4351863;32;160579;-69
2022/06/01 10:56:55;;;;;;;1.77;1.40;;;;;;;25.57;41.65;99874.19;4343047;32;34249;-70
2022/06/01 10:59:24;;;;;;;1.92;1.60;;;;;;;25.93;41.85;99881.75;4355829;32;34676;-68
2022/06/01 11:01:58;;;;;;;1.80;1.48;;;;;;;25.76;39.94;99879.19;4342262;32;35145;-69
2022/06/01 11:04:45;;;;;;;2.80;1.20;;;;;;;25.39;41.38;99876.38;4352633;32;34203;-69
2022/06/01 11:07:22;;;;;;;1.98;1.55;;;;;;;26.36;39.15;99877.50;4344375;32;33161;-70
2022/06/01 11:10:11;;;;;;;1.73;1.48;;;;;;;26.83;39.10;99880.84;4356650;32;33834;-73
2022/06/01 11:13:00;;;;;;;3.17;1.40;;;;;;;26.57;39.05;99869.00;4351031;32;33833;-69
2022/06/01 11:15:54;;;;;;;1.52;1.30;;;;;;;26.76;39.01;99879.47;4338992;33;34247;-68
2022/06/01 11:18:30;;;;;;;1.60;1.30;;;;;;;26.12;38.45;99872.00;4355615;32;33544;-68
2022/06/01 11:21:08;;;;;;;1.52;1.27;;;;;;;25.90;40.54;99876.09;4354832;32;33644;-68
2022/06/01 11:23:56;;;;;;;2.10;1.62;;;;;;;25.55;39.48;99871.78;4354871;32;35056;-67
2022/06/01 11:26:39;;;;;;;2.83;1.45;;;;;;;24.89;41.02;99867.12;4347428;32;33883;-69
2022/06/01 11:29:17;;;;;;;2.03;1.48;;;;;;;25.79;41.14;99870.97;4360682;32;34503;-68
2022/06/01 11:31:59;;;;;;;1.87;1.50;;;;;;;26.11;38.94;99882.31;4349311;32;35490;-68
2022/06/01 11:34:38;;;;;;;2.30;1.40;;;;;;;26.78;39.07;99870.75;4347110;32;35162;-69
2022/06/01 11:37:15;;;;;;;2.20;1.40;;;;;;;27.12;36.47;99863.72;4347797;32;33836;-71
2022/06/01 11:39:54;;;;;;;1.80;1.55;;;;;;;27.59;36.08;99860.16;4347769;32;34399;-70
2022/06/01 11:42:37;;;;;;;1.98;1.60;;;;;;;27.01;37.34;99859.84;4346920;33;33807;-67
2022/06/01 11:45:08;;;;;;;3.03;1.40;;;;;;;27.06;37.41;99856.78;4356313;32;33974;-67
2022/06/01 11:47:51;;;;;;;2.30;1.65;;;;;;;26.09;38.19;99856.84;4346687;32;34203;-68
2022/06/01 11:50:37;;;;;;;2.10;1.25;;;;;;;26.17;38.79;99852.28;4360816;32;34375;-68
2022/06/01 11:53:11;;;;;;;1.42;1.33;;;;;;;26.40;39.12;99852.56;4359165;32;34065;-67
2022/06/01 11:55:39;;;;;;;;;;;;;;;26.83;37.30;99853.00;4361206;32;34735;-69
2022/06/01 11:58:12;;;;;;;3.15;1.35;;;;;;;26.05;37.97;99853.12;4360148;32;34505;-68
2022/06/01 12:00:51;;;;;;;1.47;1.37;;;;;;;26.11;38.43;99856.47;4358214;32;33770;-66
2022/06/01 12:03:22;;;;;;;1.52;1.27;;;;;;;26.28;39.78;99855.38;4338718;32;33640;-68
2022/06/01 12:06:02;;;;;;;2.28;1.40;;;;;;;26.30;40.09;99856.63;4356392;32;34353;-68
2022/06/01 12:08:55;;;;;;;1.25;1.15;;;;;;;26.13;38.17;99857.75;4353187;32;34324;-67
2022/06/01 12:11:41;;;;;;;2.00;1.30;;;;;;;27.14;36.82;99858.59;4355285;32;34323;-69
2022/06/01 12:14:38;;;;;;;1.87;1.27;;;;;;;27.13;36.56;99858.97;4355672;32;33769;-68
2022/06/01 12:17:18;;;;;;;1.40;1.30;;;;;;;27.79;35.04;99858.25;4355658;32;34110;-68
2022/06/01 12:19:48;;;;;;;2.25;1.45;;;;;;;27.73;34.74;99865.28;4353739;32;34716;-68
2022/06/01 12:28:56;;;;;;;1.67;1.30;;;;;;;27.98;34.76;99857.53;4343220;32;34017;-68
2022/06/01 12:31:26;;;;;;;1.33;1.10;;;;;;;27.91;33.22;99843.41;4343850;32;34419;-66